Eyr Myken — LCQU — position and weather

sailwx.info

Track history (hours):
 
Tides and Currents Weather Stations Pressure Air Temp Water Temp Dewpoint Dewpoint Depression Visibility Wind Speed Wind Dir Waves Ship Positions

Eyr Myken

Last reported at 2016-Dec-07 20:33 UTC. Time now 2016-Dec-08 08:01 UTC.
Position N 66°24' E 012°59'.

Length 18 m.

Type: Medical transport. MMSI: 257054000.

Date/timePositionNaut miles runAvg speedWind from/ knotsBaromVisibWave heightAir tempDewpointWater temp
2016-Dec-07 20:33N 66°24' E 012°59'14 7.1
2016-Dec-07 18:33N 66°19' E 012°26'1010.4
2016-Dec-07 17:33N 66°29' E 012°38'11 2.1
2016-Dec-07 12:27N 66°36' E 012°58'2912.8
2016-Dec-07 10:11N 66°08' E 012°40'1726.7
2016-Dec-07 09:34N 66°23' E 012°21'7 6.9
2016-Dec-07 08:32N 66°29' E 012°12'1111.2
2016-Dec-07 07:33N 66°36' E 012°33'3 0.1
2016-Dec-06 10:19N 66°36' E 012°41'  
2016-Dec-03 15:33N 66°34' E 012°58'1312.6
2016-Dec-03 14:30N 66°20' E 012°60'19 1.9
2016-Dec-03 04:33N 66°39' E 013°05'0 0.0
2016-Dec-03 03:33N 66°39' E 013°05'0 0.0
2016-Dec-03 02:33N 66°39' E 013°05'0 0.0
2016-Dec-03 01:33N 66°39' E 013°05'0 0.0
2016-Dec-03 00:34N 66°39' E 013°05'0 0.0
2016-Dec-02 23:33N 66°39' E 013°05'0 0.0
2016-Dec-02 22:33N 66°39' E 013°05'0 0.0
2016-Dec-02 21:34N 66°39' E 013°05'0 0.0
2016-Dec-02 20:33N 66°39' E 013°05'0 0.0
2016-Dec-02 19:33N 66°39' E 013°05'0 0.0
2016-Dec-02 18:33N 66°39' E 013°05'0 0.0
2016-Dec-02 17:33N 66°39' E 013°05'0 0.0
2016-Dec-02 16:33N 66°39' E 013°05'0 0.0
2016-Dec-02 15:33N 66°39' E 013°05'0 0.0
2016-Dec-02 14:34N 66°39' E 013°05'0 0.0
2016-Dec-02 13:33N 66°39' E 013°05'0 0.0
2016-Dec-02 12:32N 66°39' E 013°05'9 8.7
2016-Dec-02 11:33N 66°32' E 012°54'9 8.2
2016-Dec-02 10:26N 66°30' E 013°17'1011.4
2016-Dec-02 09:33N 66°39' E 013°05'0 0.0
2016-Dec-02 08:33N 66°39' E 013°05'0 0.0
2016-Dec-02 07:33N 66°39' E 013°05'0 0.0
2016-Dec-02 06:21N 66°39' E 013°05'0 0.0
2016-Dec-02 05:32N 66°39' E 013°05'0 0.0
2016-Dec-02 04:33N 66°39' E 013°05'0 0.0
2016-Dec-02 03:33N 66°39' E 013°05'0 0.0
2016-Dec-02 02:32N 66°39' E 013°05'0 0.0
2016-Dec-02 01:33N 66°39' E 013°05'0 0.0
2016-Dec-02 00:33N 66°39' E 013°05'0 0.0
2016-Dec-01 23:33N 66°39' E 013°05'0 0.0
2016-Dec-01 22:33N 66°39' E 013°05'0 0.0
2016-Dec-01 21:32N 66°39' E 013°05'0 0.0
2016-Dec-01 20:33N 66°39' E 013°05'0 0.0
2016-Dec-01 19:33N 66°39' E 013°05'0 0.0
2016-Dec-01 18:33N 66°39' E 013°05'0 0.0
2016-Dec-01 17:33N 66°39' E 013°05'0 0.0
2016-Dec-01 16:33N 66°39' E 013°05'0 0.0
2016-Dec-01 15:33N 66°39' E 013°05'0 0.0
2016-Dec-01 14:33N 66°39' E 013°05'0 0.0
2016-Dec-01 13:33N 66°39' E 013°05'0 0.0
2016-Dec-01 12:33N 66°39' E 013°05'0 0.0
2016-Dec-01 11:32N 66°39' E 013°05'0 0.0
2016-Dec-01 10:33N 66°39' E 013°05'0 0.0
2016-Dec-01 09:33N 66°39' E 013°05'0 0.0
2016-Dec-01 08:33N 66°39' E 013°05'0 0.0
2016-Dec-01 07:33N 66°39' E 013°05'5 5.2
2016-Dec-01 06:33N 66°42' E 013°16'1110.9
2016-Dec-01 05:32N 66°31' E 013°14'9 9.3
2016-Dec-01 04:33N 66°39' E 013°05'0 0.0
2016-Dec-01 03:32N 66°39' E 013°05'0 0.0
2016-Dec-01 02:33N 66°39' E 013°05'0 0.0
2016-Dec-01 01:33N 66°39' E 013°05'0 0.0
2016-Dec-01 00:33N 66°39' E 013°05'5 5.4
2016-Nov-30 23:33N 66°38' E 013°18'2 2.0
2016-Nov-30 22:33N 66°37' E 013°13'1717.4
2016-Nov-30 21:33N 66°21' E 012°56'7 7.1
2016-Nov-30 20:32N 66°14' E 012°53'1 1.0
2016-Nov-30 19:33N 66°14' E 012°51'1817.6
2016-Nov-30 18:33N 66°31' E 012°58'7 6.4
2016-Nov-30 17:32N 66°29' E 013°14'0 0.0
2016-Nov-30 16:33N 66°29' E 013°14'1110.7
2016-Nov-30 15:33N 66°39' E 013°05'0 0.0
2016-Nov-30 14:33N 66°39' E 013°05'0 0.0
2016-Nov-30 13:33N 66°39' E 013°05'0 0.0
2016-Nov-30 12:33N 66°39' E 013°05'0 0.0
2016-Nov-30 11:33N 66°39' E 013°05'0 0.0
2016-Nov-30 10:33N 66°39' E 013°05'0 0.0
2016-Nov-30 09:34N 66°39' E 013°05'0 0.0
2016-Nov-30 08:32N 66°39' E 013°05'0 0.0
2016-Nov-30 07:33N 66°39' E 013°05'0 0.0
2016-Nov-30 06:33N 66°39' E 013°05'0 0.0
2016-Nov-30 05:33N 66°39' E 013°05'0 0.0
2016-Nov-30 04:33N 66°39' E 013°05'0 0.0
2016-Nov-30 03:33N 66°39' E 013°05'0 0.0
2016-Nov-30 02:32N 66°39' E 013°05'0 0.0
2016-Nov-30 01:33N 66°39' E 013°05'0 0.0
2016-Nov-30 00:32N 66°39' E 013°05'0 0.0
2016-Nov-29 23:33N 66°39' E 013°05'2 2.5
2016-Nov-29 22:33N 66°38' E 013°09'3 2.9
2016-Nov-29 21:32N 66°35' E 013°10'5 5.3
2016-Nov-29 20:33N 66°39' E 013°05'0 0.0
2016-Nov-29 19:33N 66°39' E 013°05'0 0.0
2016-Nov-29 18:32N 66°39' E 013°05'0 0.0
2016-Nov-29 17:33N 66°39' E 013°05'0 0.2
2016-Nov-29 16:33N 66°39' E 013°04'1010.4
2016-Nov-29 15:33N 66°36' E 012°40'8 8.5
2016-Nov-29 14:33N 66°38' E 013°00'2 2.2
2016-Nov-29 13:34N 66°39' E 013°05'0 0.0
2016-Nov-29 12:33N 66°39' E 013°05'0 0.0
2016-Nov-29 11:33N 66°39' E 013°05'0 0.0
2016-Nov-29 10:33N 66°39' E 013°05'0 0.0
2016-Nov-29 09:33N 66°39' E 013°05'0 0.0
2016-Nov-29 08:33N 66°39' E 013°05'0 0.0
2016-Nov-29 07:33N 66°39' E 013°05'0 0.0
2016-Nov-29 06:33N 66°39' E 013°05'0 0.0
2016-Nov-29 05:33N 66°39' E 013°05'0 0.0
2016-Nov-29 04:33N 66°39' E 013°05'0 0.0
2016-Nov-29 03:34N 66°39' E 013°05'0 0.0
2016-Nov-29 02:33N 66°39' E 013°05'0 0.0
2016-Nov-29 01:33N 66°39' E 013°05'0 0.0
2016-Nov-29 00:33N 66°39' E 013°05'0 0.0
2016-Nov-28 23:33N 66°39' E 013°05'0 0.0
2016-Nov-28 22:33N 66°39' E 013°05'0 0.0
2016-Nov-28 21:33N 66°39' E 013°05'0 0.0
2016-Nov-28 20:32N 66°39' E 013°05'0 0.0
2016-Nov-28 19:33N 66°39' E 013°05'0 0.0
2016-Nov-28 18:33N 66°39' E 013°05'0 0.0
2016-Nov-28 17:33N 66°39' E 013°05'0 0.0
2016-Nov-28 16:33N 66°39' E 013°05'0 0.0
2016-Nov-28 15:33N 66°39' E 013°05'0 0.0
2016-Nov-28 14:33N 66°39' E 013°05'0 0.0
2016-Nov-28 13:33N 66°39' E 013°05'1412.6
2016-Nov-28 12:27N 66°26' E 012°58'1415.2
2016-Nov-28 11:33N 66°39' E 013°05'1616.2
2016-Nov-28 10:33N 66°23' E 012°58'1616.1
2016-Nov-28 09:33N 66°39' E 013°05'0 0.0
2016-Nov-28 08:33N 66°39' E 013°05'0 0.0
2016-Nov-28 07:32N 66°39' E 013°05'0 0.0
2016-Nov-28 06:32N 66°39' E 013°05'0 0.0
2016-Nov-28 05:33N 66°39' E 013°05'0 0.0
2016-Nov-28 04:33N 66°39' E 013°05'0 0.0
2016-Nov-28 03:33N 66°39' E 013°05'0 0.0
2016-Nov-28 02:33N 66°39' E 013°05'0 0.0
2016-Nov-28 01:32N 66°39' E 013°05'1 1.5
2016-Nov-28 00:33N 66°38' E 013°04'1817.6
2016-Nov-27 23:33N 66°20' E 012°56'1817.8
2016-Nov-27 22:33N 66°05' E 012°35'9 9.0
2016-Nov-27 21:33N 65°60' E 012°17'  
Track history (hours):
 
Tides and Currents Weather Stations Pressure Air Temp Water Temp Dewpoint Dewpoint Depression Visibility Wind Speed Wind Dir Waves Ship Positions

Eyr Myken

Last reported at 2016-Dec-07 20:33 UTC. Time now 2016-Dec-08 08:01 UTC.
Position N 66°24' E 012°59'.

Length 18 m.

Type: Medical transport. MMSI: 257054000.

Date/timePositionNaut miles runAvg speedWind from/ knotsBaromVisibWave heightAir tempDewpointWater temp
2016-Dec-07 20:33N 66°24' E 012°59'14 7.1
2016-Dec-07 18:33N 66°19' E 012°26'1010.4
2016-Dec-07 17:33N 66°29' E 012°38'11 2.1
2016-Dec-07 12:27N 66°36' E 012°58'2912.8
2016-Dec-07 10:11N 66°08' E 012°40'1726.7
2016-Dec-07 09:34N 66°23' E 012°21'7 6.9
2016-Dec-07 08:32N 66°29' E 012°12'1111.2
2016-Dec-07 07:33N 66°36' E 012°33'3 0.1
2016-Dec-06 10:19N 66°36' E 012°41'  
2016-Dec-03 15:33N 66°34' E 012°58'1312.6
2016-Dec-03 14:30N 66°20' E 012°60'19 1.9
2016-Dec-03 04:33N 66°39' E 013°05'0 0.0
2016-Dec-03 03:33N 66°39' E 013°05'0 0.0
2016-Dec-03 02:33N 66°39' E 013°05'0 0.0
2016-Dec-03 01:33N 66°39' E 013°05'0 0.0
2016-Dec-03 00:34N 66°39' E 013°05'0 0.0
2016-Dec-02 23:33N 66°39' E 013°05'0 0.0
2016-Dec-02 22:33N 66°39' E 013°05'0 0.0
2016-Dec-02 21:34N 66°39' E 013°05'0 0.0
2016-Dec-02 20:33N 66°39' E 013°05'0 0.0
2016-Dec-02 19:33N 66°39' E 013°05'0 0.0
2016-Dec-02 18:33N 66°39' E 013°05'0 0.0
2016-Dec-02 17:33N 66°39' E 013°05'0 0.0
2016-Dec-02 16:33N 66°39' E 013°05'0 0.0
2016-Dec-02 15:33N 66°39' E 013°05'0 0.0
2016-Dec-02 14:34N 66°39' E 013°05'0 0.0
2016-Dec-02 13:33N 66°39' E 013°05'0 0.0
2016-Dec-02 12:32N 66°39' E 013°05'9 8.7
2016-Dec-02 11:33N 66°32' E 012°54'9 8.2
2016-Dec-02 10:26N 66°30' E 013°17'1011.4
2016-Dec-02 09:33N 66°39' E 013°05'0 0.0
2016-Dec-02 08:33N 66°39' E 013°05'0 0.0
2016-Dec-02 07:33N 66°39' E 013°05'0 0.0
2016-Dec-02 06:21N 66°39' E 013°05'0 0.0
2016-Dec-02 05:32N 66°39' E 013°05'0 0.0
2016-Dec-02 04:33N 66°39' E 013°05'0 0.0
2016-Dec-02 03:33N 66°39' E 013°05'0 0.0
2016-Dec-02 02:32N 66°39' E 013°05'0 0.0
2016-Dec-02 01:33N 66°39' E 013°05'0 0.0
2016-Dec-02 00:33N 66°39' E 013°05'0 0.0
2016-Dec-01 23:33N 66°39' E 013°05'0 0.0
2016-Dec-01 22:33N 66°39' E 013°05'0 0.0
2016-Dec-01 21:32N 66°39' E 013°05'0 0.0
2016-Dec-01 20:33N 66°39' E 013°05'0 0.0
2016-Dec-01 19:33N 66°39' E 013°05'0 0.0
2016-Dec-01 18:33N 66°39' E 013°05'0 0.0
2016-Dec-01 17:33N 66°39' E 013°05'0 0.0
2016-Dec-01 16:33N 66°39' E 013°05'0 0.0
2016-Dec-01 15:33N 66°39' E 013°05'0 0.0
2016-Dec-01 14:33N 66°39' E 013°05'0 0.0
2016-Dec-01 13:33N 66°39' E 013°05'0 0.0
2016-Dec-01 12:33N 66°39' E 013°05'0 0.0
2016-Dec-01 11:32N 66°39' E 013°05'0 0.0
2016-Dec-01 10:33N 66°39' E 013°05'0 0.0
2016-Dec-01 09:33N 66°39' E 013°05'0 0.0
2016-Dec-01 08:33N 66°39' E 013°05'0 0.0
2016-Dec-01 07:33N 66°39' E 013°05'5 5.2
2016-Dec-01 06:33N 66°42' E 013°16'1110.9
2016-Dec-01 05:32N 66°31' E 013°14'9 9.3
2016-Dec-01 04:33N 66°39' E 013°05'0 0.0
2016-Dec-01 03:32N 66°39' E 013°05'0 0.0
2016-Dec-01 02:33N 66°39' E 013°05'0 0.0
2016-Dec-01 01:33N 66°39' E 013°05'0 0.0
2016-Dec-01 00:33N 66°39' E 013°05'5 5.4
2016-Nov-30 23:33N 66°38' E 013°18'2 2.0
2016-Nov-30 22:33N 66°37' E 013°13'1717.4
2016-Nov-30 21:33N 66°21' E 012°56'7 7.1
2016-Nov-30 20:32N 66°14' E 012°53'1 1.0
2016-Nov-30 19:33N 66°14' E 012°51'1817.6
2016-Nov-30 18:33N 66°31' E 012°58'7 6.4
2016-Nov-30 17:32N 66°29' E 013°14'0 0.0
2016-Nov-30 16:33N 66°29' E 013°14'1110.7
2016-Nov-30 15:33N 66°39' E 013°05'0 0.0
2016-Nov-30 14:33N 66°39' E 013°05'0 0.0
2016-Nov-30 13:33N 66°39' E 013°05'0 0.0
2016-Nov-30 12:33N 66°39' E 013°05'0 0.0
2016-Nov-30 11:33N 66°39' E 013°05'0 0.0
2016-Nov-30 10:33N 66°39' E 013°05'0 0.0
2016-Nov-30 09:34N 66°39' E 013°05'0 0.0
2016-Nov-30 08:32N 66°39' E 013°05'0 0.0
2016-Nov-30 07:33N 66°39' E 013°05'0 0.0
2016-Nov-30 06:33N 66°39' E 013°05'0 0.0
2016-Nov-30 05:33N 66°39' E 013°05'0 0.0
2016-Nov-30 04:33N 66°39' E 013°05'0 0.0
2016-Nov-30 03:33N 66°39' E 013°05'0 0.0
2016-Nov-30 02:32N 66°39' E 013°05'0 0.0
2016-Nov-30 01:33N 66°39' E 013°05'0 0.0
2016-Nov-30 00:32N 66°39' E 013°05'0 0.0
2016-Nov-29 23:33N 66°39' E 013°05'2 2.5
2016-Nov-29 22:33N 66°38' E 013°09'3 2.9
2016-Nov-29 21:32N 66°35' E 013°10'5 5.3
2016-Nov-29 20:33N 66°39' E 013°05'0 0.0
2016-Nov-29 19:33N 66°39' E 013°05'0 0.0
2016-Nov-29 18:32N 66°39' E 013°05'0 0.0
2016-Nov-29 17:33N 66°39' E 013°05'0 0.2
2016-Nov-29 16:33N 66°39' E 013°04'1010.4
2016-Nov-29 15:33N 66°36' E 012°40'8 8.5
2016-Nov-29 14:33N 66°38' E 013°00'2 2.2
2016-Nov-29 13:34N 66°39' E 013°05'0 0.0
2016-Nov-29 12:33N 66°39' E 013°05'0 0.0
2016-Nov-29 11:33N 66°39' E 013°05'0 0.0
2016-Nov-29 10:33N 66°39' E 013°05'0 0.0
2016-Nov-29 09:33N 66°39' E 013°05'0 0.0
2016-Nov-29 08:33N 66°39' E 013°05'0 0.0
2016-Nov-29 07:33N 66°39' E 013°05'0 0.0
2016-Nov-29 06:33N 66°39' E 013°05'0 0.0
2016-Nov-29 05:33N 66°39' E 013°05'0 0.0
2016-Nov-29 04:33N 66°39' E 013°05'0 0.0
2016-Nov-29 03:34N 66°39' E 013°05'0 0.0
2016-Nov-29 02:33N 66°39' E 013°05'0 0.0
2016-Nov-29 01:33N 66°39' E 013°05'0 0.0
2016-Nov-29 00:33N 66°39' E 013°05'0 0.0
2016-Nov-28 23:33N 66°39' E 013°05'0 0.0
2016-Nov-28 22:33N 66°39' E 013°05'0 0.0
2016-Nov-28 21:33N 66°39' E 013°05'0 0.0
2016-Nov-28 20:32N 66°39' E 013°05'0 0.0
2016-Nov-28 19:33N 66°39' E 013°05'0 0.0
2016-Nov-28 18:33N 66°39' E 013°05'0 0.0
2016-Nov-28 17:33N 66°39' E 013°05'0 0.0
2016-Nov-28 16:33N 66°39' E 013°05'0 0.0
2016-Nov-28 15:33N 66°39' E 013°05'0 0.0
2016-Nov-28 14:33N 66°39' E 013°05'0 0.0
2016-Nov-28 13:33N 66°39' E 013°05'1412.6
2016-Nov-28 12:27N 66°26' E 012°58'1415.2
2016-Nov-28 11:33N 66°39' E 013°05'1616.2
2016-Nov-28 10:33N 66°23' E 012°58'1616.1
2016-Nov-28 09:33N 66°39' E 013°05'0 0.0
2016-Nov-28 08:33N 66°39' E 013°05'0 0.0
2016-Nov-28 07:32N 66°39' E 013°05'0 0.0
2016-Nov-28 06:32N 66°39' E 013°05'0 0.0
2016-Nov-28 05:33N 66°39' E 013°05'0 0.0
2016-Nov-28 04:33N 66°39' E 013°05'0 0.0
2016-Nov-28 03:33N 66°39' E 013°05'0 0.0
2016-Nov-28 02:33N 66°39' E 013°05'0 0.0
2016-Nov-28 01:32N 66°39' E 013°05'1 1.5
2016-Nov-28 00:33N 66°38' E 013°04'1817.6
2016-Nov-27 23:33N 66°20' E 012°56'1817.8
2016-Nov-27 22:33N 66°05' E 012°35'9 9.0
2016-Nov-27 21:33N 65°60' E 012°17'  

Dump ship's entire track history